Flight Track Log - Related Links

Times and Time Zones

All times are in EDT time to prevent confusion due to time zone crossing. See the EGF3383 flight status page for this flight to view local times or setup timezone preferences in your user account.

Time Position Orientation Groundspeed Altitude Reporting Facility
EDT Latitude Longitude Course Direction KTS MPH feet Rate Location/Type
Thu 05:52:45 PM 32.9000 -97.0333 84° East 131 151 1,400  Level Dallas / Fort Worth TRACON
Thu 05:53:45 PM 32.9500 -97.0167 16° North 199 229 3,500 1,800 Climbing Dallas / Fort Worth TRACON
Thu 05:54:45 PM 33.0000 -96.9833 29° Northeast 263 303 5,000 1,966 Climbing Dallas / Fort Worth TRACON
Thu 05:55:00 PM 32.6833 -96.8390 90° East  Level FlightAware Approximate
Thu 05:56:00 PM 32.6975 -96.7081 77° East  Level FlightAware Approximate
Thu 05:56:39 PM 32.9572 -96.8292 108° East 236 272 9,200  Level Fort Worth Center
Thu 05:57:00 PM 32.7218 -96.5784 77° East  Level FlightAware Approximate
Thu 05:57:39 PM 32.9172 -96.7303 116° Southeast 285 328 10,600  Level Fort Worth Center
Thu 05:58:00 PM 32.7391 -96.4474 84° East  Level FlightAware Approximate
Thu 05:58:39 PM 32.8789 -96.6342 115° Southeast 332 382 11,600  Level Fort Worth Center
Thu 05:59:39 PM 32.8303 -96.5111 115° Southeast 365 420 13,100 1,450 Climbing Fort Worth Center
Thu 06:00:39 PM 32.7897 -96.4075 115° Southeast 380 437 14,500 1,550 Climbing Fort Worth Center
Thu 06:01:39 PM 32.7511 -96.2772 109° East 380 437 16,200 1,550 Climbing Fort Worth Center
Thu 06:02:39 PM 32.7333 -96.1639 101° East 380 437 17,600 1,400 Climbing Fort Worth Center
Thu 06:03:39 PM 32.7108 -96.0233 101° East 391 450 19,000 1,450 Climbing Fort Worth Center
Thu 06:04:39 PM 32.6950 -95.9075 99° East 391 450 20,500 1,550 Climbing Fort Worth Center
Thu 06:05:39 PM 32.6722 -95.7672 101° East 391 450 22,100 1,550 Climbing Fort Worth Center
Thu 06:06:39 PM 32.6561 -95.6492 99° East 396 456 23,600 1,550 Climbing Fort Worth Center
Thu 06:07:39 PM 32.6622 -95.5033 87° East 396 456 25,200 1,550 Climbing Fort Worth Center
Thu 06:08:39 PM 32.6750 -95.3747 83° East 396 456 26,700 1,550 Climbing Fort Worth Center
Thu 06:09:39 PM 32.6811 -95.2489 87° East 396 456 28,300 1,550 Climbing Fort Worth Center
Thu 06:10:39 PM 32.6894 -95.1203 86° East 386 444 29,800 1,350 Climbing Fort Worth Center
Thu 06:11:39 PM 32.6789 -94.9994 96° East 379 436 31,000 600 Climbing Fort Worth Center
Thu 06:12:39 PM 32.6264 -94.8825 118° Southeast 385 443 31,000  Level Fort Worth Center
Thu 06:13:39 PM 32.5819 -94.7533 112° Southeast 398 458 31,000  Level Fort Worth Center
Thu 06:14:39 PM 32.5308 -94.6117 113° Southeast 434 499 31,000  Level Fort Worth Center
Thu 06:15:39 PM 32.4817 -94.4706 112° Southeast 448 516 31,000  Level Fort Worth Center
Thu 06:16:39 PM 32.4325 -94.3342 113° Southeast 456 525 31,000  Level Fort Worth Center
Thu 06:17:39 PM 32.3831 -94.1956 113° Southeast 456 525 31,000  Level Fort Worth Center
Thu 06:18:39 PM 32.3336 -94.0550 113° Southeast 451 519 31,000  Level Fort Worth Center
Thu 06:19:39 PM 32.2861 -93.9192 112° Southeast 451 519 31,000  Level Fort Worth Center
Thu 06:20:39 PM 32.2342 -93.7836 114° Southeast 456 525 31,000  Level Fort Worth Center
Thu 06:21:39 PM 32.1861 -93.6381 111° Southeast 456 525 31,000  Level Fort Worth Center
Thu 06:22:39 PM 32.1408 -93.5222 115° Southeast 445 512 31,000  Level Fort Worth Center
Thu 06:24:14 PM 32.0597 -93.2983 113° Southeast 458 527 31,000  Level Houston Center
Thu 06:25:16 PM 32.0083 -93.1597 114° Southeast 460 529 31,000  Level Houston Center
Thu 06:26:18 PM 31.9569 -93.0197 113° Southeast 464 534 31,000  Level Houston Center
Thu 06:27:19 PM 31.9039 -92.8781 114° Southeast 464 534 31,000  Level Houston Center
Thu 06:28:21 PM 31.8519 -92.7381 114° Southeast 467 537 31,000  Level Houston Center
Thu 06:29:23 PM 31.7997 -92.5989 114° Southeast 465 535 31,000  Level Houston Center
Thu 06:30:25 PM 31.7372 -92.4325 114° Southeast 464 534 31,000  Level Houston Center
Thu 06:31:26 PM 31.6853 -92.2928 114° Southeast 466 536 31,000  Level Houston Center
Thu 06:32:28 PM 31.6317 -92.1539 114° Southeast 467 537 31,000  Level Houston Center
Thu 06:33:30 PM 31.5775 -92.0122 114° Southeast 468 539 31,000  Level Houston Center
Thu 06:34:32 PM 31.5242 -91.8717 114° Southeast 470 541 31,000  Level Houston Center
Thu 06:35:33 PM 31.4697 -91.7325 115° Southeast 468 539 31,000  Level Houston Center
Thu 06:36:35 PM 31.4175 -91.5939 114° Southeast 467 537 31,000  Level Houston Center
Thu 06:37:37 PM 31.3631 -91.4542 114° Southeast 470 541 31,000  Level Houston Center
Thu 06:38:39 PM 31.2981 -91.2864 114° Southeast 473 544 31,000  Level Houston Center
Thu 06:39:40 PM 31.2497 -91.1636 115° Southeast 472 543 31,000  Level Houston Center
Thu 06:40:42 PM 31.1942 -91.0244 115° Southeast 472 543 31,000  Level Houston Center
Thu 06:41:44 PM 31.1283 -90.8572 115° Southeast 472 543 31,000 -244 Level Houston Center
Thu 06:42:45 PM 31.0728 -90.7192 115° Southeast 471 542 30,500 -488 Descending Houston Center
Thu 06:43:47 PM 31.0194 -90.5822 114° Southeast 466 536 30,000 -532 Descending Houston Center
Thu 06:44:49 PM 30.9650 -90.4461 115° Southeast 463 533 29,400 -976 Descending Houston Center
Thu 06:45:50 PM 30.9128 -90.3117 114° Southeast 457 526 28,000 -2,341 Descending Houston Center
Thu 06:46:52 PM 30.8600 -90.1803 115° Southeast 449 517 24,600 -2,129 Descending Houston Center
Thu 06:47:54 PM 30.8075 -90.0511 115° Southeast 441 507 23,600 -2,226 Descending Houston Center
Thu 06:48:56 PM 30.7561 -89.9225 115° Southeast 438 504 20,000 -3,561 Descending Houston Center
Thu 06:49:57 PM 30.6956 -89.7744 115° Southeast 419 482 16,300 -3,122 Descending Houston Center
Thu 06:50:59 PM 30.6494 -89.6656 116° Southeast 373 429 13,600 -2,710 Descending Houston Center
Thu 06:52:01 PM 30.6081 -89.5592 114° Southeast 365 420 10,700 -1,887 Descending Houston Center
Thu 06:53:03 PM 30.5725 -89.4700 115° Southeast 316 364 9,700 -1,500 Descending Houston Center
Thu 06:54:05 PM 30.5383 -89.3900 116° Southeast 284 327 7,600 -2,195 Descending Houston Center
Thu 06:55:06 PM 30.5067 -89.3117 115° Southeast 272 313 5,200 -2,361 Descending Houston Center

Login

Don't have an account? Register now (free) for customized features, flight alerts, and more!